createdAt,value
2017-12-22T00:00:05.938Z,1029.04
2017-12-22T00:02:02.375Z,1029.03
2017-12-22T00:03:01.870Z,1029.00
2017-12-22T00:04:59.859Z,1029.01
2017-12-22T00:05:59.795Z,1028.97
2017-12-22T00:07:58.644Z,1028.97
2017-12-22T00:08:57.734Z,1028.94
2017-12-22T00:10:57.189Z,1028.98
2017-12-22T00:11:56.697Z,1028.95
2017-12-22T00:13:54.806Z,1028.92
2017-12-22T00:14:53.878Z,1028.93
2017-12-22T00:16:51.805Z,1028.88
2017-12-22T00:17:52.393Z,1028.91
2017-12-22T00:19:49.923Z,1028.85
2017-12-22T00:20:50.770Z,1028.83
2017-12-22T00:22:47.798Z,1028.82
2017-12-22T00:23:47.808Z,1028.83
2017-12-22T00:25:45.895Z,1028.82
2017-12-22T00:26:46.758Z,1028.80
2017-12-22T00:28:44.311Z,1028.80
2017-12-22T00:29:45.292Z,1028.79
2017-12-22T00:31:44.306Z,1028.78
2017-12-22T00:32:44.238Z,1028.76
2017-12-22T00:34:44.753Z,1028.79
2017-12-22T00:35:45.183Z,1028.79
2017-12-22T00:37:43.214Z,1028.76
2017-12-22T00:40:44.130Z,1028.78
2017-12-22T00:41:43.086Z,1028.74
2017-12-22T00:43:41.073Z,1028.73
2017-12-22T00:44:41.034Z,1028.73
2017-12-22T00:46:39.994Z,1028.69
2017-12-22T00:47:39.605Z,1028.67
2017-12-22T00:49:36.905Z,1028.67
2017-12-22T00:50:36.903Z,1028.65
2017-12-22T00:52:38.373Z,1028.62
2017-12-22T00:53:38.421Z,1028.64
2017-12-22T00:55:37.959Z,1028.60
2017-12-22T00:56:35.332Z,1028.65
2017-12-22T00:58:34.282Z,1028.57
2017-12-22T00:59:33.367Z,1028.61
2017-12-22T01:01:37.813Z,1028.57
2017-12-22T01:02:37.817Z,1028.57
2017-12-22T01:04:34.305Z,1028.53
2017-12-22T01:05:33.764Z,1028.55
2017-12-22T01:07:32.723Z,1028.57
2017-12-22T01:08:31.817Z,1028.57
2017-12-22T01:10:30.675Z,1028.57
2017-12-22T01:11:29.666Z,1028.52
2017-12-22T01:13:28.694Z,1028.52
2017-12-22T01:14:27.690Z,1028.46
2017-12-22T01:16:26.647Z,1028.45
2017-12-22T01:17:26.581Z,1028.46
2017-12-22T01:19:21.654Z,1028.43
2017-12-22T01:20:21.609Z,1028.41
2017-12-22T01:22:17.606Z,1028.43
2017-12-22T01:23:18.060Z,1028.43
2017-12-22T01:25:17.005Z,1028.48
2017-12-22T01:26:15.590Z,1028.52
2017-12-22T01:28:14.044Z,1028.56
2017-12-22T01:29:12.585Z,1028.57
2017-12-22T01:31:09.537Z,1028.53
2017-12-22T01:33:26.788Z,1028.55
2017-12-22T01:34:26.288Z,1028.52
2017-12-22T01:36:22.209Z,1028.50
2017-12-22T01:37:22.207Z,1028.51
2017-12-22T01:39:21.165Z,1028.51
2017-12-22T01:40:20.301Z,1028.47
2017-12-22T01:42:18.743Z,1028.49
2017-12-22T01:43:19.228Z,1028.51
2017-12-22T01:45:16.266Z,1028.48
2017-12-22T01:46:16.501Z,1028.44
2017-12-22T01:48:14.296Z,1028.45
2017-12-22T01:49:15.125Z,1028.43
2017-12-22T01:51:12.260Z,1028.38
2017-12-22T01:52:12.736Z,1028.37
2017-12-22T01:54:11.683Z,1028.33
2017-12-22T01:55:10.251Z,1028.37
2017-12-22T01:57:06.735Z,1028.35
2017-12-22T01:58:06.570Z,1028.33
2017-12-22T02:00:05.506Z,1028.34
2017-12-22T02:01:04.619Z,1028.38
2017-12-22T02:03:02.599Z,1028.38
2017-12-22T02:04:02.584Z,1028.33
2017-12-22T02:06:00.556Z,1028.35
2017-12-22T02:07:00.547Z,1028.34
2017-12-22T02:08:56.548Z,1028.35
2017-12-22T02:09:56.978Z,1028.34
2017-12-22T02:11:53.449Z,1028.32
2017-12-22T02:12:53.327Z,1028.31
2017-12-22T02:14:49.294Z,1028.25
2017-12-22T02:15:49.272Z,1028.26
2017-12-22T02:17:45.253Z,1028.22
2017-12-22T02:20:01.180Z,1028.20
2017-12-22T02:21:01.776Z,1028.22
2017-12-22T02:22:59.166Z,1028.19
2017-12-22T02:23:59.183Z,1028.22
2017-12-22T02:25:58.108Z,1028.18
2017-12-22T02:26:57.616Z,1028.19
2017-12-22T02:28:55.064Z,1028.18
2017-12-22T02:29:55.071Z,1028.18
2017-12-22T02:31:54.023Z,1028.14
2017-12-22T02:32:53.031Z,1028.10
2017-12-22T02:34:51.027Z,1028.10
2017-12-22T02:35:50.979Z,1028.08
2017-12-22T02:37:49.441Z,1028.05
2017-12-22T02:38:48.906Z,1028.03
2017-12-22T02:40:47.880Z,1028.02
2017-12-22T02:41:46.946Z,1027.98
2017-12-22T02:43:44.911Z,1027.94
2017-12-22T02:44:44.876Z,1027.97
2017-12-22T02:46:43.505Z,1027.94
2017-12-22T02:47:42.804Z,1027.93
2017-12-22T02:49:40.745Z,1027.92
2017-12-22T02:50:40.757Z,1027.89
2017-12-22T02:52:38.712Z,1027.89
2017-12-22T02:53:38.700Z,1027.89
2017-12-22T02:55:38.150Z,1027.86
2017-12-22T02:56:36.752Z,1027.84
2017-12-22T02:58:34.725Z,1027.80
2017-12-22T02:59:34.679Z,1027.81
2017-12-22T03:01:31.141Z,1027.84
2017-12-22T03:02:30.623Z,1027.80
2017-12-22T03:04:32.142Z,1027.84
2017-12-22T03:05:31.059Z,1027.82
2017-12-22T03:07:29.135Z,1027.82
2017-12-22T03:08:30.021Z,1027.80
2017-12-22T03:10:28.075Z,1027.81
2017-12-22T03:11:29.074Z,1027.79
2017-12-22T03:13:25.009Z,1027.78
2017-12-22T03:14:25.022Z,1027.78
2017-12-22T03:16:23.452Z,1027.74
2017-12-22T03:17:22.963Z,1027.71
2017-12-22T03:19:21.024Z,1027.70
2017-12-22T03:20:21.020Z,1027.71
2017-12-22T03:22:19.148Z,1027.65
2017-12-22T03:23:19.072Z,1027.69
2017-12-22T03:25:17.018Z,1027.67
2017-12-22T03:26:17.527Z,1027.65
2017-12-22T03:28:16.982Z,1027.63
2017-12-22T03:29:15.069Z,1027.63
2017-12-22T03:31:12.540Z,1027.60
2017-12-22T03:32:12.012Z,1027.59
2017-12-22T03:34:08.449Z,1027.56
2017-12-22T03:35:07.943Z,1027.54
2017-12-22T03:37:03.919Z,1027.56
2017-12-22T03:38:03.906Z,1027.53
2017-12-22T03:39:59.891Z,1027.55
2017-12-22T03:40:59.832Z,1027.54
2017-12-22T03:42:58.791Z,1027.56
2017-12-22T03:43:57.784Z,1027.59
2017-12-22T03:45:56.230Z,1027.55
2017-12-22T03:46:55.736Z,1027.54
2017-12-22T03:48:53.777Z,1027.59
2017-12-22T03:49:54.603Z,1027.59
2017-12-22T03:51:52.756Z,1027.60
2017-12-22T03:52:51.729Z,1027.55
2017-12-22T03:54:49.673Z,1027.55
2017-12-22T03:55:49.656Z,1027.54
2017-12-22T03:57:47.660Z,1027.52
2017-12-22T03:58:47.598Z,1027.54
2017-12-22T04:00:46.574Z,1027.51
2017-12-22T04:01:46.600Z,1027.52
2017-12-22T04:03:43.106Z,1027.50
2017-12-22T04:04:42.078Z,1027.53
2017-12-22T04:06:38.519Z,1027.50
2017-12-22T04:07:39.024Z,1027.47
2017-12-22T04:09:36.487Z,1027.46
2017-12-22T04:10:36.464Z,1027.46
2017-12-22T04:12:36.395Z,1027.46
2017-12-22T04:13:35.432Z,1027.48
2017-12-22T04:15:33.459Z,1027.48
2017-12-22T04:16:32.983Z,1027.47
2017-12-22T04:18:30.513Z,1027.44
2017-12-22T04:19:30.535Z,1027.49
2017-12-22T04:21:28.966Z,1027.47
2017-12-22T04:22:28.950Z,1027.49
2017-12-22T04:24:26.401Z,1027.45
2017-12-22T04:25:26.398Z,1027.45
2017-12-22T04:27:25.836Z,1027.48
2017-12-22T04:28:24.329Z,1027.40
2017-12-22T04:30:24.796Z,1027.37
2017-12-22T04:31:24.822Z,1027.37
2017-12-22T04:33:23.318Z,1027.39
2017-12-22T04:34:22.827Z,1027.36
2017-12-22T04:36:20.886Z,1027.31
2017-12-22T04:37:20.876Z,1027.33
2017-12-22T04:39:18.862Z,1027.32
2017-12-22T04:40:18.810Z,1027.31
2017-12-22T04:42:17.259Z,1027.31
2017-12-22T04:43:16.765Z,1027.31
2017-12-22T04:45:14.729Z,1027.30
2017-12-22T04:46:14.755Z,1027.29
2017-12-22T04:48:13.695Z,1027.29
2017-12-22T04:49:12.749Z,1027.32
2017-12-22T04:51:10.729Z,1027.38
2017-12-22T04:52:10.211Z,1027.32
2017-12-22T04:54:08.652Z,1027.33
2017-12-22T04:55:07.616Z,1027.39
2017-12-22T04:57:07.079Z,1027.37
2017-12-22T04:58:05.669Z,1027.40
2017-12-22T05:00:03.647Z,1027.42
2017-12-22T05:01:04.638Z,1027.40
2017-12-22T05:03:01.542Z,1027.38
2017-12-22T05:04:02.082Z,1027.40
2017-12-22T05:05:57.516Z,1027.41
2017-12-22T05:06:57.490Z,1027.35
2017-12-22T05:08:53.943Z,1027.38
2017-12-22T05:09:53.502Z,1027.36
2017-12-22T05:11:52.915Z,1027.35
2017-12-22T05:12:52.399Z,1027.33
2017-12-22T05:14:50.473Z,1027.33
2017-12-22T05:15:49.470Z,1027.29
2017-12-22T05:17:47.412Z,1027.27
2017-12-22T05:18:47.420Z,1027.27
2017-12-22T05:20:46.386Z,1027.29
2017-12-22T05:21:45.340Z,1027.30
2017-12-22T05:23:44.782Z,1027.30
2017-12-22T05:24:43.389Z,1027.27
2017-12-22T05:26:40.322Z,1027.31
2017-12-22T05:27:40.323Z,1027.32
2017-12-22T05:29:35.799Z,1027.32
2017-12-22T05:30:35.292Z,1027.32
2017-12-22T05:32:33.750Z,1027.35
2017-12-22T05:33:33.235Z,1027.37
2017-12-22T05:35:31.205Z,1027.40
2017-12-22T05:36:31.154Z,1027.41
2017-12-22T05:38:29.157Z,1027.38
2017-12-22T05:39:29.107Z,1027.38
2017-12-22T05:41:25.068Z,1027.34
2017-12-22T05:42:25.046Z,1027.32
2017-12-22T05:44:24.522Z,1027.32
2017-12-22T05:45:24.000Z,1027.36
2017-12-22T05:47:21.553Z,1027.34
2017-12-22T05:48:21.113Z,1027.33
2017-12-22T05:50:19.992Z,1027.36
2017-12-22T05:51:18.961Z,1027.38
2017-12-22T05:53:18.001Z,1027.40
2017-12-22T05:54:16.924Z,1027.39
2017-12-22T05:56:15.371Z,1027.32
2017-12-22T05:57:15.395Z,1027.32
2017-12-22T05:59:13.802Z,1027.37
2017-12-22T06:00:12.886Z,1027.35
2017-12-22T06:02:11.860Z,1027.37
2017-12-22T06:03:11.341Z,1027.38
2017-12-22T06:05:08.795Z,1027.35
2017-12-22T06:06:09.280Z,1027.39
2017-12-22T06:08:07.719Z,1027.36
2017-12-22T06:09:07.716Z,1027.37
2017-12-22T06:11:04.749Z,1027.36
2017-12-22T06:12:04.747Z,1027.36
2017-12-22T06:14:03.712Z,1027.35
2017-12-22T06:15:03.785Z,1027.33
2017-12-22T06:17:01.236Z,1027.34
2017-12-22T06:18:00.744Z,1027.33
2017-12-22T06:19:58.196Z,1027.35
2017-12-22T06:20:56.731Z,1027.32
2017-12-22T06:22:54.802Z,1027.33
2017-12-22T06:23:56.701Z,1027.33
2017-12-22T06:25:52.772Z,1027.34
2017-12-22T06:26:52.714Z,1027.34
2017-12-22T06:28:51.666Z,1027.37
2017-12-22T06:29:50.774Z,1027.39
2017-12-22T06:31:47.699Z,1027.38
2017-12-22T06:32:47.704Z,1027.36
2017-12-22T06:34:45.659Z,1027.34
2017-12-22T06:35:44.642Z,1027.32
2017-12-22T06:37:40.630Z,1027.35
2017-12-22T06:38:40.583Z,1027.31
2017-12-22T06:40:36.570Z,1027.37
2017-12-22T06:41:37.035Z,1027.39
2017-12-22T06:43:34.974Z,1027.37
2017-12-22T06:44:34.469Z,1027.42
2017-12-22T06:46:32.942Z,1027.38
2017-12-22T06:47:32.569Z,1027.38
2017-12-22T06:49:28.555Z,1027.40
2017-12-22T06:50:28.509Z,1027.39
2017-12-22T06:52:27.025Z,1027.39
2017-12-22T06:53:26.475Z,1027.38
2017-12-22T06:55:25.427Z,1027.44
2017-12-22T06:56:24.432Z,1027.43
2017-12-22T06:58:21.903Z,1027.43
2017-12-22T06:59:21.395Z,1027.43
2017-12-22T07:01:16.365Z,1027.42
2017-12-22T07:02:16.364Z,1027.44
2017-12-22T07:04:15.820Z,1027.44
2017-12-22T07:05:14.309Z,1027.40
2017-12-22T07:07:12.287Z,1027.41
2017-12-22T07:08:14.764Z,1027.42
2017-12-22T07:10:10.291Z,1027.41
2017-12-22T07:11:10.282Z,1027.44
2017-12-22T07:13:06.245Z,1027.45
2017-12-22T07:14:06.221Z,1027.43
2017-12-22T07:16:04.666Z,1027.42
2017-12-22T07:17:05.677Z,1027.43
2017-12-22T07:19:02.588Z,1027.45
2017-12-22T07:20:02.075Z,1027.48
2017-12-22T07:22:01.550Z,1027.46
2017-12-22T07:23:00.140Z,1027.47
2017-12-22T07:24:59.088Z,1027.43
2017-12-22T07:25:58.072Z,1027.49
2017-12-22T07:27:57.567Z,1027.47
2017-12-22T07:28:56.101Z,1027.49
2017-12-22T07:30:55.068Z,1027.54
2017-12-22T07:31:54.123Z,1027.53
2017-12-22T07:33:52.071Z,1027.57
2017-12-22T07:34:52.048Z,1027.60
2017-12-22T07:36:51.004Z,1027.63
2017-12-22T07:37:51.064Z,1027.64
2017-12-22T07:39:48.150Z,1027.62
2017-12-22T07:40:49.071Z,1027.61
2017-12-22T07:42:44.590Z,1027.68
2017-12-22T07:43:44.078Z,1027.63
2017-12-22T07:45:40.012Z,1027.65
2017-12-22T07:46:40.032Z,1027.63
2017-12-22T07:48:36.492Z,1027.63
2017-12-22T07:49:36.971Z,1027.65
2017-12-22T07:51:33.939Z,1027.66
2017-12-22T07:52:33.946Z,1027.72
2017-12-22T07:54:31.904Z,1027.78
2017-12-22T07:55:31.904Z,1027.75
2017-12-22T07:57:29.862Z,1027.78
2017-12-22T07:58:29.865Z,1027.82
2017-12-22T08:00:25.815Z,1027.84
2017-12-22T08:01:26.308Z,1027.86
2017-12-22T08:03:22.802Z,1027.89
2017-12-22T08:04:23.270Z,1027.90
2017-12-22T08:06:18.710Z,1027.94
2017-12-22T08:07:18.718Z,1027.96
2017-12-22T08:09:16.451Z,1027.97
2017-12-22T08:10:14.646Z,1027.99
2017-12-22T08:12:11.100Z,1027.99
2017-12-22T08:13:12.110Z,1028.01
2017-12-22T08:15:10.046Z,1028.05
2017-12-22T08:16:09.557Z,1028.06
2017-12-22T08:18:04.530Z,1028.03
2017-12-22T08:19:04.505Z,1028.04
2017-12-22T08:21:00.975Z,1028.03
2017-12-22T08:22:00.427Z,1028.03
2017-12-22T08:23:56.514Z,1028.02
2017-12-22T08:24:56.380Z,1027.99
2017-12-22T08:26:54.330Z,1028.00
2017-12-22T08:27:54.338Z,1028.02
2017-12-22T08:29:59.265Z,1027.98
2017-12-22T08:30:59.001Z,1027.99
2017-12-22T08:33:07.389Z,1028.02
2017-12-22T08:34:07.140Z,1028.03
2017-12-22T08:36:03.590Z,1028.02
2017-12-22T08:37:03.054Z,1028.07
2017-12-22T08:39:01.530Z,1028.08
2017-12-22T08:40:01.093Z,1028.09
2017-12-22T08:41:59.032Z,1028.10
2017-12-22T08:42:59.047Z,1028.08
2017-12-22T08:44:57.030Z,1028.12
2017-12-22T08:45:59.201Z,1028.09
2017-12-22T08:47:53.499Z,1028.13
2017-12-22T08:48:52.959Z,1028.17
2017-12-22T08:50:48.865Z,1028.13
2017-12-22T08:51:48.875Z,1028.17
2017-12-22T08:53:46.840Z,1028.12
2017-12-22T08:54:46.816Z,1028.15
2017-12-22T08:56:42.771Z,1028.21
2017-12-22T08:57:42.767Z,1028.23
2017-12-22T08:59:39.249Z,1028.29
2017-12-22T09:00:38.729Z,1028.36
2017-12-22T09:02:36.159Z,1028.36
2017-12-22T09:03:34.635Z,1028.31
2017-12-22T09:05:31.120Z,1028.36
2017-12-22T09:07:46.533Z,1028.37
2017-12-22T09:08:46.572Z,1028.40
2017-12-22T09:10:42.474Z,1028.42
2017-12-22T09:11:42.505Z,1028.42
2017-12-22T09:13:38.900Z,1028.43
2017-12-22T09:14:38.905Z,1028.45
2017-12-22T09:16:36.351Z,1028.47
2017-12-22T09:17:34.858Z,1028.50
2017-12-22T09:19:30.333Z,1028.50
2017-12-22T09:20:30.302Z,1028.57
2017-12-22T09:22:26.306Z,1028.61
2017-12-22T09:23:26.258Z,1028.63
2017-12-22T09:25:22.168Z,1028.64
2017-12-22T09:26:22.177Z,1028.61
2017-12-22T09:28:18.648Z,1028.65
2017-12-22T09:29:18.140Z,1028.65
2017-12-22T09:31:14.601Z,1028.69
2017-12-22T09:32:14.070Z,1028.66
2017-12-22T09:34:11.519Z,1028.71
2017-12-22T09:35:10.025Z,1028.68
2017-12-22T09:37:06.461Z,1028.68
2017-12-22T09:38:05.946Z,1028.67
2017-12-22T09:40:02.896Z,1028.65
2017-12-22T09:41:01.907Z,1028.69
2017-12-22T09:42:58.366Z,1028.64
2017-12-22T09:43:57.820Z,1028.64
2017-12-22T09:45:53.788Z,1028.68
2017-12-22T09:46:53.763Z,1028.61
2017-12-22T09:48:51.722Z,1028.64
2017-12-22T09:49:51.720Z,1028.62
2017-12-22T09:51:47.679Z,1028.65
2017-12-22T09:52:47.651Z,1028.65
2017-12-22T09:54:46.136Z,1028.64
2017-12-22T09:55:45.618Z,1028.68
2017-12-22T09:57:43.603Z,1028.66
2017-12-22T09:58:44.505Z,1028.68
2017-12-22T10:00:41.627Z,1028.68
2017-12-22T10:01:41.585Z,1028.67
2017-12-22T10:03:37.517Z,1028.64
2017-12-22T10:04:37.528Z,1028.60
2017-12-22T10:06:36.013Z,1028.63
2017-12-22T10:07:35.582Z,1028.68
2017-12-22T10:09:31.533Z,1028.63
2017-12-22T10:10:31.532Z,1028.65
2017-12-22T10:12:27.971Z,1028.64
2017-12-22T10:13:27.455Z,1028.67
2017-12-22T10:15:25.425Z,1028.75
2017-12-22T10:16:25.390Z,1028.76
2017-12-22T10:18:21.868Z,1028.81
2017-12-22T10:19:21.326Z,1028.83
2017-12-22T10:21:18.782Z,1028.88
2017-12-22T10:22:17.776Z,1028.86
2017-12-22T10:24:13.718Z,1028.85
2017-12-22T10:25:13.194Z,1028.84
2017-12-22T10:27:09.159Z,1028.83
2017-12-22T10:28:09.664Z,1028.84
2017-12-22T10:30:05.612Z,1028.79
2017-12-22T10:31:05.093Z,1028.76
2017-12-22T10:33:04.062Z,1028.76
2017-12-22T10:34:03.031Z,1028.81
2017-12-22T10:35:59.016Z,1028.83
2017-12-22T10:36:58.990Z,1028.85
2017-12-22T10:38:54.914Z,1028.83
2017-12-22T10:39:54.930Z,1028.77
2017-12-22T10:41:50.895Z,1028.78
2017-12-22T10:42:50.888Z,1028.73
2017-12-22T10:44:47.359Z,1028.75
2017-12-22T10:45:46.843Z,1028.80
2017-12-22T10:47:45.324Z,1028.78
2017-12-22T10:48:45.298Z,1028.79
2017-12-22T10:50:43.274Z,1028.79
2017-12-22T10:51:42.817Z,1028.83
2017-12-22T10:53:40.271Z,1028.82
2017-12-22T10:54:39.277Z,1028.78
2017-12-22T10:56:37.228Z,1028.78
2017-12-22T10:57:36.842Z,1028.83
2017-12-22T10:59:32.776Z,1028.80
2017-12-22T11:00:32.766Z,1028.79
2017-12-22T11:02:27.737Z,1028.77
2017-12-22T11:03:27.200Z,1028.78
2017-12-22T11:05:23.172Z,1028.77
2017-12-22T11:06:23.129Z,1028.79
2017-12-22T11:08:21.104Z,1028.79
2017-12-22T11:09:21.099Z,1028.83
2017-12-22T11:11:20.537Z,1028.84
2017-12-22T11:12:19.106Z,1028.90
2017-12-22T11:14:17.171Z,1028.86
2017-12-22T11:15:17.163Z,1028.84
2017-12-22T11:17:16.615Z,1028.87
2017-12-22T11:18:16.124Z,1028.84
2017-12-22T11:20:11.721Z,1028.91
2017-12-22T11:21:11.244Z,1028.94
2017-12-22T11:23:10.668Z,1028.91
2017-12-22T11:24:10.194Z,1028.89
2017-12-22T11:26:11.770Z,1028.91
2017-12-22T11:27:07.363Z,1028.90
2017-12-22T11:29:06.353Z,1028.90
2017-12-22T11:30:05.287Z,1028.90
2017-12-22T11:32:03.264Z,1028.90
2017-12-22T11:33:03.755Z,1028.87
2017-12-22T11:35:00.693Z,1028.77
2017-12-22T11:35:59.225Z,1028.71
2017-12-22T11:37:56.167Z,1028.61
2017-12-22T11:38:55.671Z,1028.67
2017-12-22T11:40:51.594Z,1028.75
2017-12-22T11:41:51.061Z,1028.76
2017-12-22T11:43:47.030Z,1028.78
2017-12-22T11:44:47.001Z,1028.76
2017-12-22T11:46:42.908Z,1028.78
2017-12-22T11:47:42.967Z,1028.81
2017-12-22T11:49:41.889Z,1028.77
2017-12-22T11:50:42.881Z,1028.76
2017-12-22T11:52:41.436Z,1028.74
2017-12-22T11:53:41.951Z,1028.70
2017-12-22T11:55:40.355Z,1028.71
2017-12-22T11:56:40.276Z,1028.74
2017-12-22T11:58:59.010Z,1028.69
2017-12-22T11:59:59.482Z,1028.70
2017-12-22T12:01:56.837Z,1028.72
2017-12-22T12:02:56.798Z,1028.69
2017-12-22T12:05:01.757Z,1028.69
2017-12-22T12:06:01.253Z,1028.69
2017-12-22T12:08:01.005Z,1028.73
2017-12-22T12:08:58.607Z,1028.75
2017-12-22T12:11:00.092Z,1028.76
2017-12-22T12:12:00.537Z,1028.76
2017-12-22T12:13:58.644Z,1028.75
2017-12-22T12:14:58.679Z,1028.71
2017-12-22T12:16:56.724Z,1028.69
2017-12-22T12:17:55.825Z,1028.67
2017-12-22T12:19:55.197Z,1028.63
2017-12-22T12:20:53.895Z,1028.67
2017-12-22T12:22:52.846Z,1028.70
2017-12-22T12:23:52.849Z,1028.71
2017-12-22T12:25:49.966Z,1028.71
2017-12-22T12:26:49.913Z,1028.75
2017-12-22T12:28:49.373Z,1028.70
2017-12-22T12:29:48.865Z,1028.66
2017-12-22T12:31:47.489Z,1028.70
2017-12-22T12:32:46.079Z,1028.68
2017-12-22T12:34:42.569Z,1028.65
2017-12-22T12:35:42.011Z,1028.71
2017-12-22T12:37:37.968Z,1028.69
2017-12-22T12:38:38.522Z,1028.75
2017-12-22T12:40:34.446Z,1028.74
2017-12-22T12:41:33.890Z,1028.75
2017-12-22T12:43:30.322Z,1028.78
2017-12-22T12:44:30.364Z,1028.84
2017-12-22T12:46:26.269Z,1028.82
2017-12-22T12:47:25.785Z,1028.80
2017-12-22T12:49:24.280Z,1028.87
2017-12-22T12:50:23.818Z,1028.80
2017-12-22T12:52:22.778Z,1028.81
2017-12-22T12:53:21.779Z,1028.83
2017-12-22T12:55:20.249Z,1028.82
2017-12-22T12:56:19.817Z,1028.78
2017-12-22T12:58:16.291Z,1028.81
2017-12-22T12:59:16.294Z,1028.80
2017-12-22T13:01:14.243Z,1028.82
2017-12-22T13:02:13.692Z,1028.83
2017-12-22T13:04:11.726Z,1028.80
2017-12-22T13:05:11.619Z,1028.83
2017-12-22T13:07:10.581Z,1028.77
2017-12-22T13:08:09.689Z,1028.78
2017-12-22T13:10:07.660Z,1028.82
2017-12-22T13:11:07.628Z,1028.84
2017-12-22T13:13:05.570Z,1028.77
2017-12-22T13:14:05.595Z,1028.78
2017-12-22T13:16:03.561Z,1028.76
2017-12-22T13:17:05.053Z,1028.79
2017-12-22T13:19:01.560Z,1028.81
2017-12-22T13:20:01.613Z,1028.84
2017-12-22T13:21:59.028Z,1028.88
2017-12-22T13:22:57.520Z,1028.90
2017-12-22T13:24:53.954Z,1028.91
2017-12-22T13:25:53.454Z,1028.93
2017-12-22T13:27:49.412Z,1028.95
2017-12-22T13:28:49.383Z,1028.98
2017-12-22T13:30:45.834Z,1028.94
2017-12-22T13:31:45.318Z,1028.95
2017-12-22T13:33:41.772Z,1028.95
2017-12-22T13:34:41.774Z,1028.93
2017-12-22T13:36:37.226Z,1028.90
2017-12-22T13:37:37.241Z,1028.91
2017-12-22T13:39:33.150Z,1028.94
2017-12-22T13:40:33.164Z,1028.89
2017-12-22T13:42:29.155Z,1028.88
2017-12-22T13:43:29.108Z,1028.89
2017-12-22T13:45:25.043Z,1028.85
2017-12-22T13:46:25.063Z,1028.87
2017-12-22T13:48:21.008Z,1028.86
2017-12-22T13:49:20.014Z,1028.88
2017-12-22T13:51:15.449Z,1028.88
2017-12-22T13:52:15.448Z,1028.88
2017-12-22T13:54:09.424Z,1028.83
2017-12-22T13:55:08.906Z,1028.86
2017-12-22T13:57:06.820Z,1028.85
2017-12-22T13:58:06.817Z,1028.87
2017-12-22T14:00:04.746Z,1028.86
2017-12-22T14:01:04.745Z,1028.88
2017-12-22T14:03:01.260Z,1028.88
2017-12-22T14:04:00.686Z,1028.89
2017-12-22T14:05:59.668Z,1028.91
2017-12-22T14:06:58.643Z,1028.92
2017-12-22T14:08:55.115Z,1028.94
2017-12-22T14:09:54.634Z,1028.95
2017-12-22T14:11:53.538Z,1028.97
2017-12-22T14:12:52.531Z,1028.97
2017-12-22T14:14:50.498Z,1028.97
2017-12-22T14:15:50.498Z,1028.98
2017-12-22T14:17:49.457Z,1028.94
2017-12-22T14:18:48.437Z,1028.93
2017-12-22T14:20:47.445Z,1028.95
2017-12-22T14:21:46.503Z,1028.91
2017-12-22T14:23:45.923Z,1028.93
2017-12-22T14:24:44.403Z,1028.98
2017-12-22T14:26:43.866Z,1028.96
2017-12-22T14:27:44.381Z,1029.01
2017-12-22T14:29:41.434Z,1029.03
2017-12-22T14:30:41.416Z,1029.05
2017-12-22T14:32:39.007Z,1029.04
2017-12-22T14:33:38.593Z,1029.02
2017-12-22T14:35:36.658Z,1029.02
2017-12-22T14:36:37.542Z,1029.08
2017-12-22T14:38:32.598Z,1029.10
2017-12-22T14:39:32.607Z,1029.09
2017-12-22T14:41:31.058Z,1029.07
2017-12-22T14:42:30.550Z,1029.15
2017-12-22T14:44:28.484Z,1029.15
2017-12-22T14:45:28.480Z,1029.15
2017-12-22T14:47:26.522Z,1029.11
2017-12-22T14:48:27.404Z,1029.10
2017-12-22T14:50:24.434Z,1029.04
2017-12-22T14:51:24.965Z,1029.01
2017-12-22T14:53:20.428Z,1029.02
2017-12-22T14:54:20.406Z,1029.02
2017-12-22T14:56:19.428Z,1029.07
2017-12-22T14:57:18.694Z,1029.04
2017-12-22T14:59:15.170Z,1029.04
2017-12-22T15:00:14.946Z,1029.01
2017-12-22T15:02:14.090Z,1029.06
2017-12-22T15:03:12.681Z,1029.05
2017-12-22T15:05:09.538Z,1029.05
2017-12-22T15:06:07.163Z,1029.13
2017-12-22T15:08:03.149Z,1029.11
2017-12-22T15:10:19.864Z,1029.10
2017-12-22T15:11:19.035Z,1029.16
2017-12-22T15:13:15.352Z,1029.13
2017-12-22T15:14:15.323Z,1029.11
2017-12-22T15:16:13.272Z,1029.15
2017-12-22T15:17:13.294Z,1029.09
2017-12-22T15:19:11.229Z,1029.14
2017-12-22T15:20:12.735Z,1029.17
2017-12-22T15:22:07.663Z,1029.20
2017-12-22T15:23:07.153Z,1029.20
2017-12-22T15:25:03.130Z,1029.26
2017-12-22T15:26:03.082Z,1029.24
2017-12-22T15:28:03.091Z,1029.26
2017-12-22T15:29:02.161Z,1029.24
2017-12-22T15:30:59.072Z,1029.30
2017-12-22T15:31:59.593Z,1029.28
2017-12-22T15:33:58.034Z,1029.33
2017-12-22T15:34:57.006Z,1029.28
2017-12-22T15:36:55.967Z,1029.35
2017-12-22T15:37:54.968Z,1029.34
2017-12-22T15:39:54.949Z,1029.37
2017-12-22T15:40:53.918Z,1029.38
2017-12-22T15:42:50.974Z,1029.47
2017-12-22T15:43:50.979Z,1029.47
2017-12-22T15:45:48.919Z,1029.49
2017-12-22T15:46:49.443Z,1029.50
2017-12-22T15:48:47.403Z,1029.50
2017-12-22T15:49:47.369Z,1029.53
2017-12-22T15:51:45.804Z,1029.51
2017-12-22T15:52:44.784Z,1029.53
2017-12-22T15:54:42.253Z,1029.60
2017-12-22T15:55:41.752Z,1029.58
2017-12-22T15:57:41.393Z,1029.59
2017-12-22T15:58:41.396Z,1029.58
2017-12-22T16:00:39.422Z,1029.54
2017-12-22T16:01:39.458Z,1029.57
2017-12-22T16:03:38.361Z,1029.62
2017-12-22T16:04:37.878Z,1029.64
2017-12-22T16:06:35.284Z,1029.64
2017-12-22T16:07:35.279Z,1029.69
2017-12-22T16:09:34.250Z,1029.68
2017-12-22T16:10:33.326Z,1029.64
2017-12-22T16:12:32.264Z,1029.64
2017-12-22T16:13:31.365Z,1029.64
2017-12-22T16:15:32.829Z,1029.62
2017-12-22T16:16:31.830Z,1029.64
2017-12-22T16:18:31.795Z,1029.66
2017-12-22T16:19:29.882Z,1029.65
2017-12-22T16:21:27.775Z,1029.63
2017-12-22T16:22:28.256Z,1029.61
2017-12-22T16:24:23.759Z,1029.67
2017-12-22T16:25:23.725Z,1029.70
2017-12-22T16:27:21.714Z,1029.74
2017-12-22T16:28:22.533Z,1029.80
2017-12-22T16:30:18.116Z,1029.84
2017-12-22T16:31:17.611Z,1029.82
2017-12-22T16:33:13.583Z,1029.79
2017-12-22T16:34:13.515Z,1029.81
2017-12-22T16:36:10.472Z,1029.85
2017-12-22T16:37:09.968Z,1029.83
2017-12-22T16:39:08.332Z,1029.86
2017-12-22T16:40:07.942Z,1029.85
2017-12-22T16:42:05.361Z,1029.91
2017-12-22T16:43:05.332Z,1029.91
2017-12-22T16:45:01.813Z,1029.91
2017-12-22T16:46:01.298Z,1029.89
2017-12-22T16:47:59.217Z,1029.94
2017-12-22T16:48:59.233Z,1029.94
2017-12-22T16:50:57.701Z,1030.01
2017-12-22T16:51:58.684Z,1030.02
2017-12-22T16:53:56.645Z,1030.06
2017-12-22T16:54:55.118Z,1030.01
2017-12-22T16:56:56.563Z,1029.99
2017-12-22T16:57:56.070Z,1030.02
2017-12-22T16:59:52.961Z,1030.03
2017-12-22T17:00:51.480Z,1030.06
2017-12-22T17:02:49.554Z,1030.04
2017-12-22T17:03:50.456Z,1030.14
2017-12-22T17:05:47.630Z,1030.17
2017-12-22T17:06:47.611Z,1030.19
2017-12-22T17:08:44.058Z,1030.22
2017-12-22T17:09:43.549Z,1030.15
2017-12-22T17:11:39.503Z,1030.15
2017-12-22T17:12:39.513Z,1030.17
2017-12-22T17:14:37.376Z,1030.13
2017-12-22T17:15:35.424Z,1030.16
2017-12-22T17:17:31.414Z,1030.16
2017-12-22T17:18:31.391Z,1030.15
2017-12-22T17:20:30.875Z,1030.17
2017-12-22T17:21:29.483Z,1030.20
2017-12-22T17:23:28.964Z,1030.20
2017-12-22T17:24:27.538Z,1030.19
2017-12-22T17:26:26.018Z,1030.16
2017-12-22T17:27:25.583Z,1030.15
2017-12-22T17:29:23.649Z,1030.13
2017-12-22T17:30:23.670Z,1030.12
2017-12-22T17:32:22.605Z,1030.10
2017-12-22T17:33:21.681Z,1030.13
2017-12-22T17:35:19.629Z,1030.09
2017-12-22T17:36:19.637Z,1030.14
2017-12-22T17:38:18.108Z,1030.14
2017-12-22T17:39:17.700Z,1030.14
2017-12-22T17:41:17.174Z,1030.18
2017-12-22T17:42:15.615Z,1030.19
2017-12-22T17:44:13.555Z,1030.16
2017-12-22T17:45:13.578Z,1030.17
2017-12-22T17:47:12.009Z,1030.19
2017-12-22T17:48:11.594Z,1030.20
2017-12-22T17:50:10.553Z,1030.18
2017-12-22T17:51:09.638Z,1030.20
2017-12-22T17:53:08.619Z,1030.20
2017-12-22T17:54:07.596Z,1030.20
2017-12-22T17:56:03.574Z,1030.25
2017-12-22T17:57:03.543Z,1030.28